Time;durP1;ratioP1;P1;durP2;ratioP2;P2;SDS_P1;SDS_P2;PMS_P1;PMS_P2;Temp;Humidity;BMP_temperature;BMP_pressure;BME280_temperature;BME280_humidity;BME280_pressure;Samples;Min_cycle;Max_cycle;Signal;HPM_P1;HPM_P2
2024/02/26 00:01:56;;;;;;;;;;;;;;;9.02;81.58;101064.86;107598;1253;97842;-63
2024/02/26 00:04:24;;;;;;;;;;;;;;;9.01;81.68;101068.89;107575;1254;99345;-62
2024/02/26 00:06:54;;;;;;;;;;;;;;;9.01;81.65;101072.59;107618;1253;111422;-61
2024/02/26 00:09:24;;;;;;;;;;;;;;;9.00;81.77;101072.50;107611;1255;108055;-62
2024/02/26 00:11:52;;;;;;;;;;;;;;;8.98;81.92;101072.16;107613;1253;107431;-64
2024/02/26 00:14:20;;;;;;;;;;;;;;;9.00;82.06;101073.95;107610;1252;97909;-64
2024/02/26 00:16:49;;;;;;;;;;;;;;;9.04;82.09;101075.63;107607;1253;97822;-64
2024/02/26 00:19:17;;;;;;;;;;;;;;;9.07;81.86;101073.58;107624;1252;112263;-65
2024/02/26 00:21:45;;;;;;;;;;;;;;;9.10;81.91;101078.36;107619;1254;108331;-63
2024/02/26 00:24:14;;;;;;;;;;;;;;;9.13;81.78;101075.27;107647;1256;108164;-64
2024/02/26 00:26:42;;;;;;;;;;;;;;;9.19;82.06;101074.67;107491;1254;97813;-63
2024/02/26 00:29:10;;;;;;;;;;;;;;;9.25;82.08;101067.37;107629;1253;97743;-63
2024/02/26 00:31:39;;;;;;;;;;;;;;;9.30;81.80;101067.19;107587;1254;111403;-64
2024/02/26 00:34:07;;;;;;;;;;;;;;;9.34;81.79;101066.45;107644;1254;108742;-62
2024/02/26 00:36:36;;;;;;;;;;;;;;;9.37;81.38;101061.02;107475;1252;107258;-63
2024/02/26 00:39:04;;;;;;;;;;;;;;;9.36;81.00;101060.21;107539;1253;97923;-63
2024/02/26 00:41:32;;;;;;;;;;;;;;;9.37;80.93;101061.81;107419;1253;97775;-64
2024/02/26 00:44:00;;;;;;;;;;;;;;;9.39;81.05;101063.94;107575;1253;111761;-65
2024/02/26 00:46:29;;;;;;;;;;;;;;;9.42;80.90;101062.48;107617;1254;108580;-63
2024/02/26 00:48:57;;;;;;;;;;;;;;;9.43;80.75;101061.17;107595;1255;108464;-63
2024/02/26 00:51:25;;;;;;;;;;;;;;;9.39;80.41;101056.92;107535;1253;98001;-64
2024/02/26 00:53:54;;;;;;;;;;;;;;;9.32;80.21;101055.57;107568;1253;97714;-63
2024/02/26 00:56:22;;;;;;;;;;;;;;;9.23;80.43;101049.82;107585;1254;111375;-63
2024/02/26 00:58:51;;;;;;;;;;;;;;;9.17;80.90;101049.05;107553;1253;107986;-62
2024/02/26 01:01:19;;;;;;;;;;;;;;;9.10;81.04;101047.56;107517;1254;107727;-63
2024/02/26 01:03:48;;;;;;;;;;;;;;;9.06;81.12;101051.99;107565;1256;98538;-63
2024/02/26 01:06:17;;;;;;;;;;;;;;;9.07;81.14;101053.71;107548;1254;97807;-62
2024/02/26 01:08:45;;;;;;;;;;;;;;;9.09;81.25;101055.92;107553;1252;110292;-64
2024/02/26 01:11:13;;;;;;;;;;;;;;;9.05;81.30;101053.84;107535;1254;108496;-64
2024/02/26 01:13:41;;;;;;;;;;;;;;;9.06;81.44;101056.11;107573;1255;107617;-63
2024/02/26 01:16:10;;;;;;;;;;;;;;;9.10;81.42;101056.34;107504;1252;97866;-63
2024/02/26 01:18:39;;;;;;;;;;;;;;;9.06;81.20;101045.73;107620;1256;97916;-63
2024/02/26 01:21:08;;;;;;;;;;;;;;;9.03;81.28;101043.44;107576;1253;111404;-64
2024/02/26 01:23:37;;;;;;;;;;;;;;;9.03;81.35;101042.70;107587;1254;107466;-64
2024/02/26 01:26:05;;;;;;;;;;;;;;;9.04;81.30;101045.90;107571;1252;107595;-63
2024/02/26 01:28:34;;;;;;;;;;;;;;;9.03;81.16;101048.52;107563;1254;97918;-63
2024/02/26 01:31:05;;;;;;;;;;;;;;;8.99;80.99;101050.41;107599;1251;97822;-62
2024/02/26 01:33:33;;;;;;;;;;;;;;;8.98;81.15;101051.02;107588;1254;110800;-62
2024/02/26 01:36:02;;;;;;;;;;;;;;;8.97;81.14;101044.33;107701;1254;107566;-62
2024/02/26 01:38:31;;;;;;;;;;;;;;;8.96;80.99;101045.64;107575;1251;108537;-63
2024/02/26 01:40:59;;;;;;;;;;;;;;;8.93;81.07;101039.60;107609;1250;97867;-64
2024/02/26 01:43:28;;;;;;;;;;;;;;;8.90;81.32;101042.17;107560;1250;97841;-64
2024/02/26 01:45:56;;;;;;;;;;;;;;;8.93;81.57;101041.95;107643;1253;110994;-63
2024/02/26 01:48:25;;;;;;;;;;;;;;;8.93;81.31;101042.27;107635;1253;107984;-64
2024/02/26 01:50:54;;;;;;;;;;;;;;;8.92;81.29;101044.31;107592;1253;108502;-62
2024/02/26 01:53:23;;;;;;;;;;;;;;;8.90;81.37;101046.83;107559;1254;97822;-63
2024/02/26 01:55:51;;;;;;;;;;;;;;;8.89;81.24;101049.55;107596;1251;97841;-63
2024/02/26 01:58:20;;;;;;;;;;;;;;;8.87;81.33;101049.00;107610;1251;111438;-64
2024/02/26 02:00:48;;;;;;;;;;;;;;;8.87;81.28;101046.15;107672;1254;108544;-62
2024/02/26 02:03:17;;;;;;;;;;;;;;;8.87;81.27;101043.63;107565;1251;108219;-64
2024/02/26 02:05:45;;;;;;;;;;;;;;;8.87;81.20;101044.57;107594;1251;97857;-65
2024/02/26 02:08:14;;;;;;;;;;;;;;;8.84;81.07;101042.05;107626;1251;97697;-64
2024/02/26 02:10:42;;;;;;;;;;;;;;;8.80;80.80;101044.73;107547;1253;111906;-62
2024/02/26 02:13:11;;;;;;;;;;;;;;;8.74;81.10;101041.77;107619;1253;108300;-63
2024/02/26 02:15:39;;;;;;;;;;;;;;;8.68;81.05;101039.85;107594;1255;108312;-63
2024/02/26 02:18:07;;;;;;;;;;;;;;;8.62;81.22;101038.36;107638;1253;97854;-63
2024/02/26 02:20:36;;;;;;;;;;;;;;;8.59;81.15;101038.42;107585;1252;97845;-63
2024/02/26 02:23:05;;;;;;;;;;;;;;;8.55;81.22;101042.13;107531;1254;111546;-63
2024/02/26 02:25:33;;;;;;;;;;;;;;;8.52;81.28;101043.95;107609;1253;108418;-63
2024/02/26 02:28:02;;;;;;;;;;;;;;;8.52;81.35;101040.71;107551;1254;108553;-64
2024/02/26 02:30:33;;;;;;;;;;;;;;;8.53;81.42;101042.06;107585;1256;98379;-65
2024/02/26 02:33:02;;;;;;;;;;;;;;;8.56;81.22;101042.91;107667;1252;97762;-64
2024/02/26 02:35:30;;;;;;;;;;;;;;;8.58;81.22;101043.65;107582;1253;111702;-65
2024/02/26 02:37:58;;;;;;;;;;;;;;;8.59;81.02;101048.21;107615;1253;108218;-65
2024/02/26 02:40:26;;;;;;;;;;;;;;;8.61;80.88;101051.87;107585;1250;107377;-64
2024/02/26 02:42:54;;;;;;;;;;;;;;;8.60;80.90;101052.67;107544;1251;97921;-64
2024/02/26 02:45:23;;;;;;;;;;;;;;;8.60;80.74;101053.71;107523;1254;97912;-63
2024/02/26 02:47:51;;;;;;;;;;;;;;;8.59;80.47;101054.30;107486;1254;111621;-63
2024/02/26 02:50:20;;;;;;;;;;;;;;;8.54;80.28;101053.66;107501;1251;108028;-63
2024/02/26 02:52:49;;;;;;;;;;;;;;;8.47;80.35;101061.30;107574;1254;107748;-63
2024/02/26 02:55:18;;;;;;;;;;;;;;;8.43;80.34;101064.45;107499;1256;97931;-62
2024/02/26 02:57:46;;;;;;;;;;;;;;;8.36;80.41;101062.30;107588;1253;98005;-63
2024/02/26 03:00:14;;;;;;;;;;;;;;;8.33;80.49;101069.46;107608;1253;111977;-63
2024/02/26 03:02:44;;;;;;;;;;;;;;;8.33;80.44;101062.86;107585;1252;107937;-62
2024/02/26 03:05:13;;;;;;;;;;;;;;;8.33;80.37;101058.42;107569;1254;107511;-64
2024/02/26 03:07:41;;;;;;;;;;;;;;;8.36;80.53;101054.63;107556;1251;97829;-64
2024/02/26 03:10:09;;;;;;;;;;;;;;;8.38;80.35;101054.27;107490;1250;97834;-64
2024/02/26 03:12:37;;;;;;;;;;;;;;;8.38;80.33;101052.48;107505;1254;110864;-63
2024/02/26 03:15:06;;;;;;;;;;;;;;;8.40;80.16;101050.90;107589;1250;107662;-64
2024/02/26 03:17:34;;;;;;;;;;;;;;;8.40;80.01;101047.34;107631;1251;109755;-64
2024/02/26 03:20:05;;;;;;;;;;;;;;;8.40;79.44;101051.43;107560;1251;97835;-63
2024/02/26 03:22:33;;;;;;;;;;;;;;;8.37;79.59;101051.65;107521;1253;97701;-62
2024/02/26 03:25:01;;;;;;;;;;;;;;;8.36;79.58;101048.90;107628;1254;111519;-63
2024/02/26 03:27:29;;;;;;;;;;;;;;;8.32;79.35;101051.84;107639;1254;107438;-64
2024/02/26 03:29:58;;;;;;;;;;;;;;;8.27;79.37;101056.14;107603;1254;107311;-63
2024/02/26 03:32:26;;;;;;;;;;;;;;;8.20;79.37;101055.38;107604;1254;97833;-63
2024/02/26 03:34:55;;;;;;;;;;;;;;;8.15;79.49;101054.89;107583;1255;97729;-67
2024/02/26 03:37:24;;;;;;;;;;;;;;;8.09;79.57;101051.91;107582;1251;110781;-63
2024/02/26 03:39:53;;;;;;;;;;;;;;;8.08;79.40;101056.98;107575;1252;107348;-62
2024/02/26 03:42:21;;;;;;;;;;;;;;;8.06;79.49;101051.80;107618;1253;107900;-62
2024/02/26 03:44:49;;;;;;;;;;;;;;;8.06;79.63;101051.29;107599;1252;97821;-63
2024/02/26 03:47:17;;;;;;;;;;;;;;;8.07;79.61;101050.47;107598;1252;97836;-63
2024/02/26 03:49:45;;;;;;;;;;;;;;;8.08;79.45;101050.55;107635;1251;111907;-63
2024/02/26 03:52:14;;;;;;;;;;;;;;;8.08;79.47;101050.20;107541;1254;108661;-63
2024/02/26 03:54:43;;;;;;;;;;;;;;;8.09;79.49;101051.21;107544;1252;109393;-64
2024/02/26 03:57:11;;;;;;;;;;;;;;;8.10;79.24;101048.23;107562;1252;97706;-63
2024/02/26 03:59:40;;;;;;;;;;;;;;;8.08;78.96;101048.62;107612;1254;97822;-62
2024/02/26 04:02:09;;;;;;;;;;;;;;;8.03;79.06;101053.09;107573;1253;110804;-64
2024/02/26 04:04:38;;;;;;;;;;;;;;;8.03;79.13;101060.42;107629;1253;107215;-63
2024/02/26 04:07:06;;;;;;;;;;;;;;;8.02;79.12;101062.45;107554;1253;109138;-64
2024/02/26 04:09:35;;;;;;;;;;;;;;;8.02;78.75;101061.75;107616;1253;97864;-63
2024/02/26 04:12:03;;;;;;;;;;;;;;;7.99;78.80;101067.27;107551;1254;97819;-65
2024/02/26 04:14:32;;;;;;;;;;;;;;;7.96;78.71;101071.61;107620;1253;112687;-64
2024/02/26 04:17:00;;;;;;;;;;;;;;;7.92;78.89;101074.56;107595;1253;107468;-63
2024/02/26 04:19:28;;;;;;;;;;;;;;;7.90;78.81;101073.52;107577;1252;108274;-63
2024/02/26 04:21:57;;;;;;;;;;;;;;;7.90;79.08;101070.99;107584;1254;97912;-62
2024/02/26 04:24:25;;;;;;;;;;;;;;;7.93;79.23;101070.77;107570;1254;97714;-63
2024/02/26 04:26:53;;;;;;;;;;;;;;;7.94;79.24;101074.46;107619;1254;110809;-65
2024/02/26 04:29:21;;;;;;;;;;;;;;;7.95;78.89;101074.36;107584;1256;108172;-66
2024/02/26 04:31:49;;;;;;;;;;;;;;;7.94;78.63;101073.59;107538;1254;108270;-64
2024/02/26 04:34:18;;;;;;;;;;;;;;;7.87;78.48;101077.27;107557;1252;97871;-64
2024/02/26 04:36:47;;;;;;;;;;;;;;;7.78;78.57;101074.89;107609;1253;97957;-65
2024/02/26 04:39:16;;;;;;;;;;;;;;;7.72;78.82;101070.34;107612;1254;110972;-64
2024/02/26 04:41:44;;;;;;;;;;;;;;;7.69;79.06;101068.40;107580;1255;108853;-63
2024/02/26 04:44:12;;;;;;;;;;;;;;;7.65;79.07;101068.70;107567;1254;108081;-62
2024/02/26 04:46:41;;;;;;;;;;;;;;;7.63;79.16;101068.41;107528;1255;97832;-64
2024/02/26 04:49:09;;;;;;;;;;;;;;;7.66;79.48;101071.05;107603;1255;97863;-65
2024/02/26 04:51:38;;;;;;;;;;;;;;;7.69;79.52;101074.29;107630;1254;111848;-64
2024/02/26 04:54:06;;;;;;;;;;;;;;;7.72;79.39;101076.92;107617;1252;107866;-65
2024/02/26 04:56:34;;;;;;;;;;;;;;;7.74;79.45;101079.27;107597;1253;107238;-66
2024/02/26 04:59:02;;;;;;;;;;;;;;;7.74;79.16;101077.85;107583;1253;97837;-64
2024/02/26 05:01:30;;;;;;;;;;;;;;;7.74;78.92;101080.20;107611;1254;98004;-65
2024/02/26 05:03:59;;;;;;;;;;;;;;;7.68;78.51;101077.36;107657;1253;112106;-65
2024/02/26 05:06:27;;;;;;;;;;;;;;;7.61;78.40;101074.29;107604;1254;107560;-63
2024/02/26 05:08:56;;;;;;;;;;;;;;;7.55;78.45;101075.26;107566;1254;108341;-63
2024/02/26 05:11:24;;;;;;;;;;;;;;;7.52;78.69;101075.30;107569;1254;97846;-65
2024/02/26 05:13:52;;;;;;;;;;;;;;;7.44;78.62;101078.16;107573;1253;97868;-65
2024/02/26 05:16:24;;;;;;;;;;;;;;;7.34;78.74;101073.00;107563;1255;111373;-65
2024/02/26 05:18:53;;;;;;;;;;;;;;;7.30;79.08;101074.88;107643;1254;107020;-62
2024/02/26 05:21:22;;;;;;;;;;;;;;;7.28;79.60;101066.65;107601;1255;108628;-64
2024/02/26 05:23:50;;;;;;;;;;;;;;;7.22;79.80;101066.31;107627;1253;97817;-66
2024/02/26 05:26:22;;;;;;;;;;;;;;;7.19;80.06;101071.00;107603;1254;97835;-68
2024/02/26 05:28:50;;;;;;;;;;;;;;;7.17;80.28;101073.95;107606;1254;111886;-66
2024/02/26 05:31:19;;;;;;;;;;;;;;;7.14;80.24;101078.85;107616;1253;108014;-66
2024/02/26 05:33:47;;;;;;;;;;;;;;;7.09;80.52;101083.27;107592;1253;107088;-65
2024/02/26 05:36:22;;;;;;;;;;;;;;;7.06;80.67;101080.80;107591;1253;97932;-67
2024/02/26 05:38:51;;;;;;;;;;;;;;;7.03;80.89;101079.58;107623;1255;98011;-66
2024/02/26 05:41:22;;;;;;;;;;;;;;;6.99;81.28;101075.04;107722;1253;111235;-66
2024/02/26 05:43:52;;;;;;;;;;;;;;;6.99;81.32;101077.53;107650;1254;108394;-65
2024/02/26 05:46:20;;;;;;;;;;;;;;;7.03;81.58;101080.86;107565;1253;107112;-64
2024/02/26 05:48:52;;;;;;;;;;;;;;;7.10;81.77;101086.09;107570;1254;97928;-65
2024/02/26 05:51:21;;;;;;;;;;;;;;;7.18;81.64;101091.61;107635;1251;97673;-65
2024/02/26 05:53:53;;;;;;;;;;;;;;;7.26;81.50;101085.88;107587;1250;111395;-65
2024/02/26 05:56:23;;;;;;;;;;;;;;;7.31;81.52;101085.85;107487;1251;108435;-65
2024/02/26 05:58:51;;;;;;;;;;;;;;;7.42;81.37;101087.44;107461;1254;109044;-64
2024/02/26 06:01:20;;;;;;;;;;;;;;;7.51;80.89;101088.73;107520;1254;97895;-66
2024/02/26 06:03:49;;;;;;;;;;;;;;;7.51;80.44;101092.83;107512;1255;97914;-64
2024/02/26 06:06:17;;;;;;;;;;;;;;;7.51;80.47;101091.59;107473;1254;111895;-64
2024/02/26 06:08:46;;;;;;;;;;;;;;;7.51;80.34;101089.99;107506;1254;107503;-65
2024/02/26 06:11:14;;;;;;;;;;;;;;;7.53;80.41;101095.25;107471;1254;107809;-63
2024/02/26 06:13:42;;;;;;;;;;;;;;;7.55;80.41;101092.58;107436;1253;97697;-64
2024/02/26 06:16:11;;;;;;;;;;;;;;;7.61;80.50;101091.25;107475;1256;97839;-65
2024/02/26 06:18:39;;;;;;;;;;;;;;;7.68;80.31;101091.13;107441;1253;111797;-66
2024/02/26 06:21:11;;;;;;;;;;;;;;;7.72;80.08;101092.27;107453;1253;108671;-65
2024/02/26 06:23:42;;;;;;;;;;;;;;;7.75;79.83;101092.05;107440;1251;106870;-65
2024/02/26 06:26:10;;;;;;;;;;;;;;;7.81;79.74;101094.48;107539;1253;97714;-65
2024/02/26 06:28:40;;;;;;;;;;;;;;;7.87;79.70;101100.65;107494;1251;98034;-66
2024/02/26 06:31:09;;;;;;;;;;;;;;;7.94;79.51;101100.89;107486;1251;112111;-67
2024/02/26 06:33:38;;;;;;;;;;;;;;;7.97;79.29;101105.81;107531;1253;107935;-66
2024/02/26 06:36:07;;;;;;;;;;;;;;;8.03;79.34;101108.80;107478;1251;107678;-65
2024/02/26 06:38:36;;;;;;;;;;;;;;;8.10;79.27;101107.63;107485;1251;97722;-64
2024/02/26 06:41:04;;;;;;;;;;;;;;;8.16;79.29;101108.59;107472;1251;97900;-64
2024/02/26 06:43:32;;;;;;;;;;;;;;;8.25;79.46;101105.98;107545;1251;112986;-63
2024/02/26 06:46:01;;;;;;;;;;;;;;;8.34;79.24;101105.50;107475;1254;108110;-64
2024/02/26 06:48:29;;;;;;;;;;;;;;;8.46;79.29;101107.83;107559;1251;107492;-64
2024/02/26 06:50:57;;;;;;;;;;;;;;;8.59;79.36;101103.66;107515;1251;97857;-65
2024/02/26 06:53:26;;;;;;;;;;;;;;;8.74;79.41;101103.25;107503;1250;97882;-64
2024/02/26 06:55:54;;;;;;;;;;;;;;;8.91;78.93;101104.00;107497;1251;111161;-64
2024/02/26 06:58:23;;;;;;;;;;;;;;;9.07;78.11;101107.95;107510;1251;108379;-66
2024/02/26 07:00:51;;;;;;;;;;;;;;;9.24;78.12;101109.13;107424;1253;107517;-65
2024/02/26 07:03:19;;;;;;;;;;;;;;;9.45;77.52;101110.19;107461;1254;97865;-65
2024/02/26 07:05:48;;;;;;;;;;;;;;;9.64;75.93;101112.86;107572;1253;97812;-64
2024/02/26 07:08:17;;;;;;;;;;;;;;;9.81;74.79;101111.88;107700;1255;109627;-64
2024/02/26 07:10:45;;;;;;;;;;;;;;;9.96;74.81;101114.55;107578;1254;107363;-63
2024/02/26 07:13:13;;;;;;;;;;;;;;;10.15;74.29;101111.45;107572;1254;108590;-65
2024/02/26 07:15:42;;;;;;;;;;;;;;;10.31;74.06;101112.64;107599;1254;97819;-66
2024/02/26 07:18:10;;;;;;;;;;;;;;;10.51;74.54;101109.98;107615;1255;97816;-64
2024/02/26 07:20:38;;;;;;;;;;;;;;;10.68;74.12;101112.70;107643;1254;111020;-66
2024/02/26 07:23:07;;;;;;;;;;;;;;;10.83;73.48;101113.59;107618;1251;108526;-65
2024/02/26 07:25:36;;;;;;;;;;;;;;;10.96;73.12;101109.46;107602;1255;108520;-65
2024/02/26 07:28:04;;;;;;;;;;;;;;;11.12;72.48;101112.83;107581;1254;97816;-67
2024/02/26 07:30:32;;;;;;;;;;;;;;;11.26;71.97;101116.83;107571;1254;97918;-67
2024/02/26 07:33:01;;;;;;;;;;;;;;;11.35;70.94;101116.02;107509;1254;111991;-66
2024/02/26 07:35:29;;;;;;;;;;;;;;;11.44;70.39;101112.74;107490;1251;109605;-65
2024/02/26 07:37:57;;;;;;;;;;;;;;;11.53;69.71;101113.63;107586;1255;107223;-66
2024/02/26 07:40:25;;;;;;;;;;;;;;;11.59;69.09;101109.66;107498;1253;97925;-65
2024/02/26 07:42:53;;;;;;;;;;;;;;;11.64;68.43;101110.88;107537;1254;97807;-66
2024/02/26 07:45:22;;;;;;;;;;;;;;;11.68;68.20;101111.94;107619;1254;111493;-63
2024/02/26 07:47:51;;;;;;;;;;;;;;;11.78;67.97;101120.24;107532;1251;108361;-64
2024/02/26 07:50:20;;;;;;;;;;;;;;;11.85;68.06;101115.08;107607;1251;107671;-63
2024/02/26 07:52:51;;;;;;;;;;;;;;;11.97;68.12;101115.37;107558;1253;97705;-64
2024/02/26 07:55:19;;;;;;;;;;;;;;;12.06;67.86;101112.97;107583;1254;97957;-64
2024/02/26 07:57:47;;;;;;;;;;;;;;;12.08;66.11;101112.38;107649;1254;110916;-63
2024/02/26 08:00:16;;;;;;;;;;;;;;;12.03;65.96;101114.09;107622;1255;107521;-65
2024/02/26 08:02:45;;;;;;;;;;;;;;;11.95;66.06;101113.70;107590;1251;108795;-64
2024/02/26 08:05:14;;;;;;;;;;;;;;;11.90;66.27;101113.55;107550;1253;97889;-65
2024/02/26 08:07:42;;;;;;;;;;;;;;;11.91;66.62;101115.13;107629;1251;97729;-65
2024/02/26 08:10:11;;;;;;;;;;;;;;;11.89;65.83;101111.17;107609;1251;111467;-64
2024/02/26 08:12:39;;;;;;;;;;;;;;;11.82;65.73;101117.73;107650;1250;109994;-64
2024/02/26 08:15:08;;;;;;;;;;;;;;;11.77;65.67;101117.77;107599;1251;108039;-66
2024/02/26 08:17:36;;;;;;;;;;;;;;;11.71;65.68;101118.45;107617;1251;97821;-63
2024/02/26 08:20:05;;;;;;;;;;;;;;;11.67;65.73;101119.89;107585;1253;97951;-64
2024/02/26 08:22:33;;;;;;;;;;;;;;;11.60;65.03;101124.08;107622;1253;110712;-66
2024/02/26 08:25:06;;;;;;;;;;;;;;;11.50;65.02;101122.08;107664;1254;108252;-65
2024/02/26 08:27:35;;;;;;;;;;;;;;;11.52;65.56;101110.21;107606;1254;108321;-63
2024/02/26 08:30:03;;;;;;;;;;;;;;;11.70;66.16;101105.80;107593;1254;97945;-64
2024/02/26 08:32:31;;;;;;;;;;;;;;;11.92;64.20;101111.84;107647;1251;97835;-64
2024/02/26 08:35:00;;;;;;;;;;;;;;;12.02;63.44;101109.30;107548;1254;111580;-63
2024/02/26 08:37:28;;;;;;;;;;;;;;;12.17;63.51;101107.09;107630;1254;108240;-63
2024/02/26 08:39:57;;;;;;;;;;;;;;;12.31;63.64;101108.14;107584;1251;108441;-64
2024/02/26 08:42:29;;;;;;;;;;;;;;;12.45;63.17;101108.88;107579;1254;97828;-64
2024/02/26 08:45:02;;;;;;;;;;;;;;;12.60;62.95;101109.52;107617;1254;97845;-65
2024/02/26 08:47:30;;;;;;;;;;;;;;;12.72;62.14;101108.77;107406;1254;250883;-63
2024/02/26 08:49:59;;;;;;;;;;;;;;;12.73;61.47;101109.92;107596;1253;107419;-64
2024/02/26 08:52:27;;;;;;;;;;;;;;;12.66;60.53;101107.92;107611;1251;108214;-66
2024/02/26 08:54:55;;;;;;;;;;;;;;;12.59;60.70;101110.52;107623;1251;97819;-65
2024/02/26 08:57:23;;;;;;;;;;;;;;;12.49;60.41;101108.11;107571;1254;97837;-64
2024/02/26 08:59:52;;;;;;;;;;;;;;;12.40;61.15;101110.76;107571;1254;111095;-65
2024/02/26 09:02:20;;;;;;;;;;;;;;;12.38;61.42;101114.53;107626;1253;108350;-63
2024/02/26 09:04:48;;;;;;;;;;;;;;;12.37;61.06;101114.63;107524;1251;107909;-63
2024/02/26 09:07:16;;;;;;;;;;;;;;;12.38;61.23;101115.84;107568;1251;97826;-64
2024/02/26 09:09:45;;;;;;;;;;;;;;;12.40;61.07;101119.38;107610;1251;97921;-64
2024/02/26 09:12:13;;;;;;;;;;;;;;;12.40;61.30;101123.58;107623;1251;111350;-65
2024/02/26 09:14:41;;;;;;;;;;;;;;;12.38;60.89;101119.77;107635;1251;108595;-63
2024/02/26 09:17:09;;;;;;;;;;;;;;;12.31;61.13;101116.60;107621;1254;108087;-64
2024/02/26 09:19:37;;;;;;;;;;;;;;;12.29;61.59;101120.36;107584;1251;97934;-63
2024/02/26 09:22:06;;;;;;;;;;;;;;;12.30;61.64;101118.92;107654;1254;98709;-67
2024/02/26 09:24:36;;;;;;;;;;;;;;;12.30;61.37;101122.08;107586;1251;111550;-64
2024/02/26 09:27:04;;;;;;;;;;;;;;;12.29;61.15;101132.78;107581;1254;107532;-65
2024/02/26 09:29:32;;;;;;;;;;;;;;;12.31;60.79;101131.23;107617;1254;107282;-64
2024/02/26 09:32:01;;;;;;;;;;;;;;;12.31;60.65;101131.73;107616;1251;97841;-63
2024/02/26 09:34:29;;;;;;;;;;;;;;;12.33;60.74;101127.02;107590;1254;97948;-65
2024/02/26 09:36:57;;;;;;;;;;;;;;;12.39;60.86;101125.11;107610;1254;110767;-64
2024/02/26 09:39:39;;;;;;;;;;;;;;;12.47;61.34;101119.30;107640;1251;107448;-64
2024/02/26 09:42:09;;;;;;;;;;;;;;;12.57;60.89;101116.84;107581;1251;107269;-63
2024/02/26 09:44:41;;;;;;;;;;;;;;;12.58;60.21;101114.59;107602;1254;97815;-64
2024/02/26 09:47:13;;;;;;;;;;;;;;;12.58;60.50;101117.23;107669;1251;97815;-63
2024/02/26 09:49:42;;;;;;;;;;;;;;;12.63;60.02;101114.47;107640;1254;112142;-64
2024/02/26 09:52:11;;;;;;;;;;;;;;;12.70;59.34;101114.34;107631;1254;108228;-63
2024/02/26 09:54:40;;;;;;;;;;;;;;;12.79;58.86;101112.95;107646;1251;107527;-63
2024/02/26 09:57:14;;;;;;;;;;;;;;;12.91;59.55;101108.62;107573;1253;97835;-63
2024/02/26 09:59:44;;;;;;;;;;;;;;;13.12;59.03;101104.59;107585;1254;97809;-63
2024/02/26 10:02:13;;;;;;;;;;;;;;;13.21;58.91;101101.34;107603;1254;111991;-64
2024/02/26 10:04:42;;;;;;;;;;;;;;;13.34;58.63;101096.69;107591;1254;108115;-65
2024/02/26 10:07:16;;;;;;;;;;;;;;;13.38;58.54;101095.44;107576;1251;106285;-63
2024/02/26 10:09:45;;;;;;;;;;;;;;;13.43;58.66;101092.60;107523;1253;97837;-64
2024/02/26 10:12:16;;;;;;;;;;;;;;;13.53;58.78;101083.46;107612;1251;97895;-64
2024/02/26 10:14:44;;;;;;;;;;;;;;;13.61;57.63;101080.81;107676;1251;110976;-64
2024/02/26 10:17:14;;;;;;;;;;;;;;;13.68;57.66;101079.42;107534;1256;108651;-65
2024/02/26 10:19:42;;;;;;;;;;;;;;;13.77;57.38;101082.73;107536;1251;109015;-64
2024/02/26 10:22:10;;;;;;;;;;;;;;;13.79;56.86;101081.38;107581;1255;97819;-66
2024/02/26 10:24:39;;;;;;;;;;;;;;;13.86;56.65;101081.17;107584;1251;97764;-65
2024/02/26 10:27:08;;;;;;;;;;;;;;;13.87;56.10;101079.39;107623;1251;111861;-64
2024/02/26 10:29:36;;;;;;;;;;;;;;;13.88;55.99;101081.70;107622;1254;108087;-64
2024/02/26 10:32:05;;;;;;;;;;;;;;;13.82;55.08;101084.05;107616;1251;107451;-66
2024/02/26 10:34:34;;;;;;;;;;;;;;;13.77;55.20;101076.79;107590;1254;98585;-65
2024/02/26 10:37:04;;;;;;;;;;;;;;;13.80;55.23;101075.20;107557;1254;97837;-65
2024/02/26 10:39:33;;;;;;;;;;;;;;;13.84;54.93;101073.20;107602;1255;110908;-64
2024/02/26 10:42:06;;;;;;;;;;;;;;;13.96;55.33;101071.33;107599;1252;108632;-64
2024/02/26 10:44:35;;;;;;;;;;;;;;;14.06;54.90;101070.91;107588;1252;107879;-64
2024/02/26 10:47:03;;;;;;;;;;;;;;;14.20;55.09;101062.11;107585;1255;97914;-64
2024/02/26 10:49:33;;;;;;;;;;;;;;;14.40;54.49;101056.52;107650;1251;97719;-64
2024/02/26 10:52:03;;;;;;;;;;;;;;;14.56;53.55;101053.83;107594;1251;111316;-65
2024/02/26 10:54:32;;;;;;;;;;;;;;;14.65;53.41;101055.67;107604;1251;108686;-64
2024/02/26 10:57:01;;;;;;;;;;;;;;;14.71;53.08;101051.58;107568;1251;108002;-64
2024/02/26 10:59:32;;;;;;;;;;;;;;;14.89;52.74;101051.25;107572;1254;97736;-64
2024/02/26 11:02:01;;;;;;;;;;;;;;;15.32;52.63;101045.94;107549;1254;97783;-64
2024/02/26 11:04:30;;;;;;;;;;;;;;;15.77;51.89;101042.63;107583;1251;111458;-64
2024/02/26 11:06:59;;;;;;;;;;;;;;;16.14;49.87;101041.06;107592;1254;108332;-64
2024/02/26 11:09:28;;;;;;;;;;;;;;;16.35;51.25;101044.47;107608;1254;108214;-64
2024/02/26 11:11:59;;;;;;;;;;;;;;;16.55;49.98;101045.67;107576;1254;97761;-63
2024/02/26 11:14:29;;;;;;;;;;;;;;;16.73;49.71;101043.43;107597;1254;97838;-63
2024/02/26 11:16:58;;;;;;;;;;;;;;;16.91;48.39;101038.73;107656;1251;110902;-65
2024/02/26 11:19:27;;;;;;;;;;;;;;;17.06;46.84;101042.15;107588;1251;107505;-65
2024/02/26 11:21:56;;;;;;;;;;;;;;;17.44;42.94;101042.42;107550;1257;107419;-64
2024/02/26 11:24:27;;;;;;;;;;;;;;;17.79;41.42;101041.91;107469;1251;97834;-65
2024/02/26 11:27:00;;;;;;;;;;;;;;;18.08;41.29;101042.78;107538;1254;97827;-64
2024/02/26 11:29:40;;;;;;;;;;;;;;;18.04;39.81;101042.42;107568;1252;111862;-65
2024/02/26 11:32:08;;;;;;;;;;;;;;;17.97;41.65;101038.21;107510;1254;108086;-63
2024/02/26 11:34:38;;;;;;;;;;;;;;;18.01;42.41;101035.99;107537;1256;108568;-65
2024/02/26 11:37:13;;;;;;;;;;;;;;;18.07;42.38;101028.02;107637;1257;97911;-64
2024/02/26 11:39:42;;;;;;;;;;;;;;;18.15;41.97;101023.61;107539;1256;97943;-67
2024/02/26 11:42:14;;;;;;;;;;;;;;;18.14;41.20;101019.23;107584;1251;112220;-63
2024/02/26 11:44:43;;;;;;;;;;;;;;;18.06;41.44;101017.92;107532;1254;107659;-64
2024/02/26 11:47:12;;;;;;;;;;;;;;;17.97;41.20;101025.52;107613;1257;108671;-67
2024/02/26 11:49:40;;;;;;;;;;;;;;;17.89;42.25;101024.04;107537;1254;97899;-69
2024/02/26 11:52:10;;;;;;;;;;;;;;;17.87;42.65;101027.77;107553;1251;97784;-63
2024/02/26 11:54:44;;;;;;;;;;;;;;;17.84;42.10;101023.52;107488;1254;111427;-63
2024/02/26 11:57:28;;;;;;;;;;;;;;;17.74;42.43;101025.76;107530;1256;107165;-63
2024/02/26 12:00:16;;;;;;;;;;;;;;;17.63;41.56;101020.27;107546;1256;107716;-63
2024/02/26 12:02:46;;;;;;;;;;;;;;;17.47;41.58;101008.48;107475;1256;97937;-65
2024/02/26 12:05:16;;;;;;;;;;;;;;;17.40;42.55;101010.11;107572;1253;98516;-65
2024/02/26 12:07:49;;;;;;;;;;;;;;;17.39;41.41;101006.52;107569;1251;111151;-63
2024/02/26 12:10:25;;;;;;;;;;;;;;;17.34;40.63;101008.37;107555;1254;108580;-60
2024/02/26 12:13:05;;;;;;;;;;;;;;;17.32;40.49;101004.84;107534;1256;107713;-63
2024/02/26 12:15:38;;;;;;;;;;;;;;;17.29;39.95;101003.90;107595;1251;98074;-67
2024/02/26 12:18:10;;;;;;;;;;;;;;;17.30;39.86;101006.86;107543;1256;97733;-62
2024/02/26 12:20:38;;;;;;;;;;;;;;;17.34;38.02;101003.48;107537;1255;111124;-63
2024/02/26 12:23:07;;;;;;;;;;;;;;;17.29;37.84;101005.25;107532;1251;107993;-63
2024/02/26 12:25:35;;;;;;;;;;;;;;;17.28;37.67;101007.06;107514;1251;107156;-63
2024/02/26 12:28:04;;;;;;;;;;;;;;;17.29;37.15;101005.84;107538;1254;97840;-61
2024/02/26 12:30:32;;;;;;;;;;;;;;;17.32;37.58;101004.02;107521;1256;97921;-62
2024/02/26 12:33:01;;;;;;;;;;;;;;;17.40;39.14;101005.29;107604;1251;111213;-63
2024/02/26 12:35:31;;;;;;;;;;;;;;;17.54;39.57;101004.44;107601;1256;107325;-62